createdAt,value
2019-02-27T00:01:38.342Z,10.40
2019-02-27T00:04:06.528Z,9.63
2019-02-27T00:06:34.656Z,8.55
2019-02-27T00:09:02.966Z,10.77
2019-02-27T00:11:31.154Z,8.67
2019-02-27T00:13:59.331Z,7.73
2019-02-27T00:16:27.435Z,6.30
2019-02-27T00:18:58.577Z,8.47
2019-02-27T00:21:25.719Z,7.20
2019-02-27T00:23:56.671Z,7.33
2019-02-27T00:26:23.769Z,6.73
2019-02-27T00:28:55.952Z,9.83
2019-02-27T00:31:21.758Z,6.07
2019-02-27T00:33:50.118Z,6.30
2019-02-27T00:36:18.245Z,6.80
2019-02-27T00:38:46.394Z,8.60
2019-02-27T00:41:14.682Z,6.90
2019-02-27T00:43:42.830Z,7.83
2019-02-27T00:46:13.326Z,7.17
2019-02-27T00:48:41.062Z,7.40
2019-02-27T00:51:09.612Z,8.30
2019-02-27T00:53:39.088Z,10.60
2019-02-27T00:56:09.757Z,6.23
2019-02-27T00:58:37.242Z,6.80
2019-02-27T01:01:05.553Z,9.70
2019-02-27T01:03:33.703Z,7.90
2019-02-27T01:06:01.902Z,10.47
2019-02-27T01:08:30.038Z,8.47
2019-02-27T01:10:58.348Z,7.30
2019-02-27T01:13:28.932Z,7.30
2019-02-27T01:15:56.338Z,9.27
2019-02-27T01:18:24.745Z,7.20
2019-02-27T01:20:52.891Z,7.27
2019-02-27T01:23:21.057Z,7.80
2019-02-27T01:25:49.501Z,7.37
2019-02-27T01:28:17.647Z,8.37
2019-02-27T01:30:45.842Z,8.57
2019-02-27T01:33:14.016Z,7.97
2019-02-27T01:35:42.152Z,7.17
2019-02-27T01:38:10.326Z,6.97
2019-02-27T01:40:39.154Z,6.57
2019-02-27T01:43:07.305Z,9.13
2019-02-27T01:45:35.442Z,8.13
2019-02-27T01:48:03.594Z,7.67
2019-02-27T01:50:35.373Z,6.40
2019-02-27T01:53:07.114Z,6.10
2019-02-27T01:55:33.761Z,6.67
2019-02-27T01:58:01.970Z,5.60
2019-02-27T02:00:30.179Z,7.00
2019-02-27T02:02:58.337Z,9.23
2019-02-27T02:05:27.459Z,8.03
2019-02-27T02:07:55.698Z,7.67
2019-02-27T02:10:27.981Z,8.03
2019-02-27T02:12:58.437Z,6.30
2019-02-27T02:15:44.685Z,6.00
2019-02-27T02:18:30.905Z,6.07
2019-02-27T02:21:12.534Z,6.30
2019-02-27T02:23:42.202Z,6.43
2019-02-27T02:26:27.156Z,9.50
2019-02-27T02:29:05.776Z,5.70
2019-02-27T02:31:41.694Z,7.60
2019-02-27T02:34:12.801Z,7.23
2019-02-27T02:36:42.588Z,6.83
2019-02-27T02:39:28.667Z,7.80
2019-02-27T02:41:58.363Z,6.33
2019-02-27T02:44:36.832Z,7.50
2019-02-27T02:47:12.658Z,6.27
2019-02-27T02:49:43.608Z,5.80
2019-02-27T02:52:16.533Z,6.20
2019-02-27T02:55:04.295Z,6.10
2019-02-27T02:57:43.079Z,6.13
2019-02-27T03:00:15.739Z,5.67
2019-02-27T03:02:45.435Z,5.20
2019-02-27T03:05:24.439Z,7.30
2019-02-27T03:08:03.055Z,5.53
2019-02-27T03:10:49.785Z,6.03
2019-02-27T03:13:22.395Z,6.07
2019-02-27T03:15:55.260Z,10.17
2019-02-27T03:18:41.415Z,5.57
2019-02-27T03:21:11.570Z,5.37
2019-02-27T03:23:52.182Z,5.93
2019-02-27T03:26:21.784Z,6.33
2019-02-27T03:28:54.341Z,5.33
2019-02-27T03:31:24.059Z,5.70
2019-02-27T03:34:05.873Z,7.30
2019-02-27T03:36:38.990Z,5.90
2019-02-27T03:39:11.527Z,5.27
2019-02-27T03:41:47.074Z,4.97
2019-02-27T03:44:20.733Z,6.30
2019-02-27T03:47:07.564Z,6.00
2019-02-27T03:49:46.253Z,5.93
2019-02-27T03:52:36.034Z,5.63
2019-02-27T03:55:15.957Z,5.60
2019-02-27T03:57:55.321Z,5.80
2019-02-27T04:00:26.061Z,7.80
2019-02-27T04:03:01.679Z,6.37
2019-02-27T04:05:31.453Z,7.70
2019-02-27T04:08:08.643Z,6.70
2019-02-27T04:10:33.944Z,6.87
2019-02-27T04:13:02.170Z,5.67
2019-02-27T04:15:30.288Z,5.83
2019-02-27T04:17:58.107Z,5.67
2019-02-27T04:20:26.647Z,8.60
2019-02-27T04:22:54.782Z,7.37
2019-02-27T04:25:22.926Z,6.63
2019-02-27T04:27:55.238Z,7.73
2019-02-27T04:30:20.986Z,10.37
2019-02-27T04:32:49.111Z,6.03
2019-02-27T04:35:17.379Z,7.97
2019-02-27T04:37:45.518Z,10.00
2019-02-27T04:40:13.657Z,6.60
2019-02-27T04:42:41.926Z,5.40
2019-02-27T04:45:12.282Z,7.47
2019-02-27T04:47:40.216Z,6.43
2019-02-27T04:50:10.921Z,6.83
2019-02-27T04:52:38.347Z,6.80
2019-02-27T04:55:06.478Z,8.10
2019-02-27T04:57:34.785Z,7.37
2019-02-27T05:00:02.917Z,11.63
2019-02-27T05:02:31.066Z,7.33
2019-02-27T05:04:59.246Z,7.63
2019-02-27T05:07:27.403Z,9.60
2019-02-27T05:09:55.544Z,6.97
2019-02-27T05:12:23.817Z,6.27
2019-02-27T05:14:51.970Z,7.00
2019-02-27T05:17:21.457Z,7.17
2019-02-27T05:19:51.985Z,7.37
2019-02-27T05:22:20.128Z,8.47
2019-02-27T05:24:48.272Z,6.87
2019-02-27T05:27:16.543Z,6.10
2019-02-27T05:29:44.698Z,5.63
2019-02-27T05:32:12.874Z,7.30
2019-02-27T05:34:41.140Z,5.93
2019-02-27T05:37:09.272Z,7.83
2019-02-27T05:39:37.418Z,8.47
2019-02-27T05:42:06.450Z,10.57
2019-02-27T05:44:35.128Z,8.80
2019-02-27T05:47:03.269Z,7.93
2019-02-27T05:49:31.445Z,9.20
2019-02-27T05:51:59.583Z,6.63
2019-02-27T05:54:29.945Z,8.17
2019-02-27T05:56:57.760Z,7.60
2019-02-27T05:59:28.955Z,8.30
2019-02-27T06:01:55.746Z,7.20
2019-02-27T06:04:25.130Z,11.87
2019-02-27T06:06:53.883Z,8.63
2019-02-27T06:09:22.048Z,11.27
2019-02-27T06:11:50.474Z,9.67
2019-02-27T06:14:21.122Z,8.70
2019-02-27T06:16:48.515Z,8.37
2019-02-27T06:19:16.825Z,10.27
2019-02-27T06:21:45.239Z,11.13
2019-02-27T06:24:13.368Z,9.20
2019-02-27T06:26:41.816Z,9.00
2019-02-27T06:29:09.953Z,12.93
2019-02-27T06:31:39.536Z,10.57
2019-02-27T06:34:07.832Z,13.70
2019-02-27T06:36:35.960Z,8.00
2019-02-27T06:39:05.788Z,12.30
2019-02-27T06:41:34.156Z,9.10
2019-02-27T06:44:02.364Z,7.47
2019-02-27T06:46:30.510Z,11.63
2019-02-27T06:48:58.820Z,9.43
2019-02-27T06:51:26.960Z,10.87
2019-02-27T06:53:55.109Z,8.83
2019-02-27T06:56:23.407Z,11.37
2019-02-27T06:58:51.561Z,14.13
2019-02-27T07:01:19.718Z,9.87
2019-02-27T07:03:47.881Z,9.20
2019-02-27T07:06:16.009Z,8.27
2019-02-27T07:08:44.149Z,10.67
2019-02-27T07:11:12.453Z,9.13
2019-02-27T07:13:40.608Z,10.43
2019-02-27T07:16:08.754Z,11.07
2019-02-27T07:18:41.538Z,11.97
2019-02-27T07:21:06.794Z,9.10
2019-02-27T07:23:35.356Z,8.97
2019-02-27T07:26:03.634Z,10.27
2019-02-27T07:28:31.829Z,8.57
2019-02-27T07:30:59.980Z,8.93
2019-02-27T07:33:28.273Z,8.93
2019-02-27T07:35:56.397Z,8.60
2019-02-27T07:38:25.585Z,9.50
2019-02-27T07:40:53.952Z,7.60
2019-02-27T07:43:22.042Z,7.83
2019-02-27T07:45:50.152Z,8.37
2019-02-27T07:48:18.389Z,7.70
2019-02-27T07:50:49.209Z,9.10
2019-02-27T07:53:17.680Z,8.17
2019-02-27T07:55:47.379Z,9.97
2019-02-27T07:58:15.650Z,10.93
2019-02-27T08:00:43.795Z,7.37
2019-02-27T08:03:13.069Z,9.93
2019-02-27T08:05:41.361Z,9.33
2019-02-27T08:08:09.508Z,10.03
2019-02-27T08:10:39.446Z,10.27
2019-02-27T08:13:09.574Z,7.43
2019-02-27T08:15:40.433Z,11.73
2019-02-27T08:18:08.746Z,9.07
2019-02-27T08:20:37.021Z,10.47
2019-02-27T08:23:06.817Z,7.83
2019-02-27T08:25:35.328Z,7.90
2019-02-27T08:28:03.521Z,8.83
2019-02-27T08:30:31.757Z,9.57
2019-02-27T08:33:00.098Z,9.37
2019-02-27T08:35:28.235Z,8.23
2019-02-27T08:38:02.525Z,7.97
2019-02-27T08:40:26.426Z,10.37
2019-02-27T08:42:54.570Z,13.33
2019-02-27T08:45:26.701Z,8.57
2019-02-27T08:47:52.583Z,10.57
2019-02-27T08:50:21.198Z,8.90
2019-02-27T08:52:51.572Z,7.62
2019-02-27T08:55:22.297Z,7.97
2019-02-27T08:57:50.006Z,8.50
2019-02-27T09:00:23.380Z,9.40
2019-02-27T09:02:51.620Z,9.68
2019-02-27T09:05:20.791Z,10.40
2019-02-27T09:07:49.254Z,10.60
2019-02-27T09:10:23.206Z,12.10
2019-02-27T09:12:51.925Z,10.50
2019-02-27T09:15:20.346Z,8.60
2019-02-27T09:17:48.545Z,10.95
2019-02-27T09:20:19.658Z,9.25
2019-02-27T09:22:47.663Z,10.05
2019-02-27T09:25:15.931Z,11.28
2019-02-27T09:27:44.146Z,9.98
2019-02-27T09:30:15.955Z,12.03
2019-02-27T09:32:45.978Z,8.75
2019-02-27T09:35:14.117Z,8.85
2019-02-27T09:37:42.510Z,8.63
2019-02-27T09:40:17.627Z,11.18
2019-02-27T09:42:45.843Z,13.48
2019-02-27T09:45:24.627Z,9.00
2019-02-27T09:47:52.758Z,8.90
2019-02-27T09:50:22.448Z,10.45
2019-02-27T09:52:50.632Z,10.55
2019-02-27T09:55:20.411Z,13.45
2019-02-27T09:57:48.635Z,9.20
2019-02-27T10:00:33.397Z,10.13
2019-02-27T10:03:01.643Z,11.00
2019-02-27T10:05:29.953Z,10.32
2019-02-27T10:07:58.329Z,12.07
2019-02-27T10:10:26.542Z,10.10
2019-02-27T10:12:54.677Z,11.53
2019-02-27T10:15:25.292Z,9.28
2019-02-27T10:17:52.936Z,9.10
2019-02-27T10:20:21.083Z,15.38
2019-02-27T10:22:49.556Z,11.25
2019-02-27T10:25:17.701Z,12.15
2019-02-27T10:27:47.274Z,10.93
2019-02-27T10:30:16.743Z,12.00
2019-02-27T10:32:45.150Z,13.45
2019-02-27T10:35:14.758Z,10.20
2019-02-27T10:37:43.219Z,10.90
2019-02-27T10:40:19.093Z,14.00
2019-02-27T10:42:50.243Z,14.78
2019-02-27T10:45:17.134Z,12.00
2019-02-27T10:47:45.362Z,13.93
2019-02-27T10:50:13.932Z,11.10
2019-02-27T10:52:42.316Z,11.10
2019-02-27T10:55:14.233Z,14.63
2019-02-27T10:57:41.655Z,9.95
2019-02-27T11:00:14.346Z,10.93
2019-02-27T11:02:45.185Z,13.88
2019-02-27T11:05:15.112Z,11.80
2019-02-27T11:07:42.255Z,16.87
2019-02-27T11:10:10.405Z,11.28
2019-02-27T11:12:38.857Z,13.20
2019-02-27T11:15:08.522Z,13.98
2019-02-27T11:17:36.658Z,10.35
2019-02-27T11:20:05.701Z,10.85
2019-02-27T11:22:33.853Z,12.88
2019-02-27T11:25:02.387Z,13.25
2019-02-27T11:27:30.846Z,14.80
2019-02-27T11:30:00.326Z,13.38
2019-02-27T11:32:28.856Z,15.60
2019-02-27T11:34:57.034Z,13.38
2019-02-27T11:37:25.169Z,14.20
2019-02-27T11:39:53.325Z,15.78
2019-02-27T11:42:21.530Z,13.75
2019-02-27T11:44:50.244Z,11.90
2019-02-27T11:47:18.400Z,14.23
2019-02-27T11:49:46.855Z,14.28
2019-02-27T11:52:15.015Z,15.00
2019-02-27T11:54:43.883Z,11.90
2019-02-27T11:57:12.107Z,12.10
2019-02-27T11:59:40.241Z,9.55
2019-02-27T12:02:08.512Z,15.10
2019-02-27T12:04:36.684Z,13.93
2019-02-27T12:07:04.827Z,11.50
2019-02-27T12:09:35.122Z,13.32
2019-02-27T12:12:03.066Z,12.98
2019-02-27T12:14:31.202Z,9.85
2019-02-27T12:16:59.345Z,11.12
2019-02-27T12:19:27.565Z,11.80
2019-02-27T12:21:59.535Z,8.28
2019-02-27T12:24:25.664Z,12.68
2019-02-27T12:26:53.905Z,15.28
2019-02-27T12:29:24.159Z,12.50
2019-02-27T12:31:51.937Z,9.05
2019-02-27T12:34:20.348Z,14.85
2019-02-27T12:36:52.497Z,10.32
2019-02-27T12:39:19.166Z,11.53
2019-02-27T12:41:47.584Z,17.07
2019-02-27T12:44:15.778Z,14.78
2019-02-27T12:46:43.919Z,12.10
2019-02-27T12:49:12.099Z,9.63
2019-02-27T12:51:40.257Z,12.35
2019-02-27T12:54:08.396Z,11.35
2019-02-27T12:56:41.303Z,10.98
2019-02-27T12:59:06.473Z,13.53
2019-02-27T13:01:34.609Z,12.60
2019-02-27T13:04:02.866Z,10.48
2019-02-27T13:06:34.735Z,11.90
2019-02-27T13:09:00.869Z,10.13
2019-02-27T13:11:29.182Z,13.28
2019-02-27T13:13:59.699Z,14.00
2019-02-27T13:16:27.201Z,8.08
2019-02-27T13:18:55.386Z,10.45
2019-02-27T13:21:23.533Z,10.80
2019-02-27T13:23:51.731Z,10.70
2019-02-27T13:26:20.263Z,10.40
2019-02-27T13:28:48.793Z,7.80
2019-02-27T13:31:17.732Z,8.35
2019-02-27T13:33:45.995Z,8.00
2019-02-27T13:36:14.138Z,11.53
2019-02-27T13:38:42.283Z,11.80
2019-02-27T13:41:11.204Z,11.00
2019-02-27T13:43:39.483Z,10.70
2019-02-27T13:46:07.622Z,9.13
2019-02-27T13:48:37.337Z,9.03
2019-02-27T13:51:06.272Z,9.33
2019-02-27T13:53:34.414Z,9.20
2019-02-27T13:56:02.582Z,6.67
2019-02-27T13:58:35.663Z,10.20
2019-02-27T14:01:00.593Z,8.90
2019-02-27T14:03:28.749Z,7.05
2019-02-27T14:05:56.890Z,6.35
2019-02-27T14:08:25.027Z,5.58
2019-02-27T14:10:53.999Z,8.75
2019-02-27T14:13:22.194Z,6.60
2019-02-27T14:15:50.338Z,8.35
2019-02-27T14:18:18.803Z,7.35
2019-02-27T14:20:46.950Z,13.83
2019-02-27T14:23:15.272Z,12.05
2019-02-27T14:25:43.707Z,9.85
2019-02-27T14:28:11.834Z,8.60
2019-02-27T14:30:44.622Z,8.15
2019-02-27T14:33:12.881Z,8.15
2019-02-27T14:35:41.029Z,14.30
2019-02-27T14:38:09.176Z,6.67
2019-02-27T14:40:40.949Z,8.78
2019-02-27T14:43:07.452Z,6.80
2019-02-27T14:45:39.597Z,11.33
2019-02-27T14:48:05.643Z,6.15
2019-02-27T14:50:34.760Z,11.05
2019-02-27T14:53:03.073Z,6.17
2019-02-27T14:55:31.238Z,9.10
2019-02-27T14:57:59.386Z,7.40
2019-02-27T15:00:29.066Z,5.85
2019-02-27T15:02:57.305Z,6.12
2019-02-27T15:05:25.450Z,5.25
2019-02-27T15:07:54.825Z,5.90
2019-02-27T15:10:23.557Z,7.10
2019-02-27T15:12:54.987Z,5.87
2019-02-27T15:15:22.645Z,10.08
2019-02-27T15:17:51.819Z,11.95
2019-02-27T15:20:21.097Z,6.65
2019-02-27T15:22:52.572Z,6.83
2019-02-27T15:25:19.450Z,6.70
2019-02-27T15:27:47.772Z,6.70
2019-02-27T15:30:19.706Z,8.15
2019-02-27T15:32:48.014Z,13.48
2019-02-27T15:35:20.983Z,5.75
2019-02-27T15:37:48.159Z,8.60
2019-02-27T15:40:20.685Z,6.95
2019-02-27T15:42:48.900Z,6.97
2019-02-27T15:45:17.895Z,6.97
2019-02-27T15:47:46.135Z,7.67
2019-02-27T15:50:22.666Z,7.80
2019-02-27T15:52:47.942Z,10.05
2019-02-27T15:55:16.139Z,9.80
2019-02-27T15:57:44.278Z,9.03
2019-02-27T16:00:19.517Z,6.85
2019-02-27T16:02:47.729Z,6.10
2019-02-27T16:05:15.962Z,6.62
2019-02-27T16:07:48.522Z,8.53
2019-02-27T16:10:18.458Z,7.85
2019-02-27T16:12:46.709Z,6.87
2019-02-27T16:15:16.949Z,7.28
2019-02-27T16:17:45.957Z,11.22
2019-02-27T16:20:16.170Z,6.97
2019-02-27T16:22:44.926Z,6.72
2019-02-27T16:25:18.244Z,9.23
2019-02-27T16:27:44.346Z,8.10
2019-02-27T16:30:14.053Z,6.05
2019-02-27T16:32:48.044Z,6.25
2019-02-27T16:35:12.269Z,7.12
2019-02-27T16:37:40.417Z,10.63
2019-02-27T16:40:10.342Z,7.90
2019-02-27T16:42:39.181Z,11.53
2019-02-27T16:45:12.046Z,6.55
2019-02-27T16:47:41.373Z,12.65
2019-02-27T16:50:11.438Z,11.65
2019-02-27T16:52:42.066Z,12.28
2019-02-27T16:55:10.972Z,8.90
2019-02-27T16:57:39.127Z,10.68
2019-02-27T17:00:09.032Z,12.98
2019-02-27T17:02:38.419Z,9.78
2019-02-27T17:05:08.784Z,9.23
2019-02-27T17:07:37.678Z,8.58
2019-02-27T17:10:19.333Z,9.35
2019-02-27T17:12:47.482Z,9.23
2019-02-27T17:15:15.620Z,6.92
2019-02-27T17:17:44.183Z,9.73
2019-02-27T17:20:13.492Z,6.65
2019-02-27T17:22:41.635Z,10.40
2019-02-27T17:25:11.018Z,10.20
2019-02-27T17:27:39.213Z,11.33
2019-02-27T17:30:08.882Z,12.63
2019-02-27T17:32:37.079Z,15.13
2019-02-27T17:35:05.796Z,15.18
2019-02-27T17:37:34.016Z,13.98
2019-02-27T17:40:03.524Z,13.10
2019-02-27T17:42:31.834Z,15.72
2019-02-27T17:45:00.004Z,17.77
2019-02-27T17:47:28.734Z,15.75
2019-02-27T17:49:58.222Z,10.15
2019-02-27T17:52:26.470Z,13.68
2019-02-27T17:54:54.608Z,8.53
2019-02-27T17:57:25.067Z,9.45
2019-02-27T17:59:52.665Z,11.35
2019-02-27T18:02:21.514Z,8.68
2019-02-27T18:04:53.024Z,11.12
2019-02-27T18:07:19.449Z,16.07
2019-02-27T18:09:47.829Z,10.55
2019-02-27T18:12:15.949Z,12.70
2019-02-27T18:14:46.824Z,15.48
2019-02-27T18:17:14.011Z,11.70
2019-02-27T18:19:42.137Z,11.22
2019-02-27T18:22:14.024Z,16.50
2019-02-27T18:24:40.206Z,14.45
2019-02-27T18:27:08.359Z,12.23
2019-02-27T18:29:38.239Z,17.23
2019-02-27T18:32:06.739Z,14.65
2019-02-27T18:34:34.973Z,18.85
2019-02-27T18:37:03.113Z,12.82
2019-02-27T18:39:36.287Z,12.82
2019-02-27T18:42:01.595Z,17.60
2019-02-27T18:44:29.728Z,14.10
2019-02-27T18:46:59.418Z,13.30
2019-02-27T18:49:27.752Z,13.83
2019-02-27T18:51:55.885Z,21.02
2019-02-27T18:54:25.222Z,15.03
2019-02-27T18:56:53.475Z,12.25
2019-02-27T18:59:21.614Z,11.80
2019-02-27T19:01:49.784Z,14.93
2019-02-27T19:04:17.921Z,14.90
2019-02-27T19:06:46.923Z,18.05
2019-02-27T19:09:15.323Z,13.45
2019-02-27T19:11:43.487Z,18.00
2019-02-27T19:14:11.619Z,12.20
2019-02-27T19:16:40.138Z,15.53
2019-02-27T19:19:08.306Z,21.55
2019-02-27T19:21:36.438Z,16.00
2019-02-27T19:24:04.759Z,15.75
2019-02-27T19:26:32.953Z,12.83
2019-02-27T19:29:01.249Z,18.50
2019-02-27T19:31:29.421Z,17.47
2019-02-27T19:33:57.586Z,16.87
2019-02-27T19:36:30.500Z,21.90
2019-02-27T19:38:55.774Z,18.02
2019-02-27T19:41:23.920Z,16.40
2019-02-27T19:43:54.949Z,19.00
2019-02-27T19:46:22.008Z,20.23
2019-02-27T19:48:50.139Z,16.97
2019-02-27T19:51:20.231Z,19.00
2019-02-27T19:53:49.450Z,21.10
2019-02-27T19:56:17.692Z,16.00
2019-02-27T19:58:48.285Z,26.23
2019-02-27T20:01:15.845Z,19.20
2019-02-27T20:03:44.015Z,15.87
2019-02-27T20:06:12.267Z,18.60
2019-02-27T20:08:44.409Z,16.10
2019-02-27T20:11:12.265Z,21.03
2019-02-27T20:13:40.446Z,29.52
2019-02-27T20:16:09.110Z,21.33
2019-02-27T20:18:37.331Z,18.07
2019-02-27T20:21:05.454Z,21.90
2019-02-27T20:23:33.745Z,21.07
2019-02-27T20:26:02.035Z,24.33
2019-02-27T20:28:31.841Z,22.60
2019-02-27T20:31:00.633Z,20.80
2019-02-27T20:33:28.732Z,22.62
2019-02-27T20:35:56.881Z,19.10
2019-02-27T20:38:25.383Z,20.40
2019-02-27T20:40:54.651Z,22.77
2019-02-27T20:43:29.001Z,21.73
2019-02-27T20:45:52.876Z,24.80
2019-02-27T20:48:21.022Z,16.27
2019-02-27T20:50:56.889Z,17.60
2019-02-27T20:53:25.072Z,18.73
2019-02-27T20:55:53.277Z,15.80
2019-02-27T20:58:22.229Z,21.13
2019-02-27T21:00:50.518Z,23.90
2019-02-27T21:03:18.662Z,22.33
2019-02-27T21:05:48.539Z,22.37
2019-02-27T21:08:16.915Z,22.43
2019-02-27T21:10:47.970Z,16.53
2019-02-27T21:13:16.903Z,17.37
2019-02-27T21:15:45.111Z,15.37
2019-02-27T21:18:13.250Z,16.87
2019-02-27T21:20:42.127Z,18.90
2019-02-27T21:23:11.318Z,17.13
2019-02-27T21:25:39.449Z,20.53
2019-02-27T21:28:07.969Z,20.30
2019-02-27T21:30:36.253Z,17.70
2019-02-27T21:33:04.394Z,17.07
2019-02-27T21:35:32.725Z,16.33
2019-02-27T21:38:00.897Z,14.53
2019-02-27T21:40:29.052Z,20.63
2019-02-27T21:42:59.024Z,21.00
2019-02-27T21:45:27.166Z,16.73
2019-02-27T21:47:55.298Z,15.17
2019-02-27T21:50:24.331Z,17.90
2019-02-27T21:52:54.226Z,16.73
2019-02-27T21:55:22.334Z,16.60
2019-02-27T21:57:50.501Z,18.80
2019-02-27T22:00:21.842Z,16.70
2019-02-27T22:02:50.051Z,17.00
2019-02-27T22:05:19.652Z,16.93
2019-02-27T22:07:48.061Z,13.23
2019-02-27T22:10:19.683Z,13.50
2019-02-27T22:12:46.494Z,14.50
2019-02-27T22:15:24.710Z,14.47
2019-02-27T22:17:52.869Z,15.57
2019-02-27T22:20:20.997Z,14.60
2019-02-27T22:22:49.166Z,15.57
2019-02-27T22:25:17.518Z,14.50
2019-02-27T22:27:46.621Z,14.50
2019-02-27T22:30:18.636Z,14.57
2019-02-27T22:32:48.179Z,15.87
2019-02-27T22:35:16.622Z,14.70
2019-02-27T22:37:45.066Z,18.13
2019-02-27T22:40:14.280Z,16.27
2019-02-27T22:42:42.415Z,20.40
2019-02-27T22:45:11.754Z,19.40
2019-02-27T22:47:39.898Z,16.20
2019-02-27T22:50:09.553Z,16.43
2019-02-27T22:52:37.670Z,16.57
2019-02-27T22:55:07.401Z,12.77
2019-02-27T22:57:35.796Z,13.97
2019-02-27T23:00:08.172Z,18.00
2019-02-27T23:02:35.528Z,16.80
2019-02-27T23:05:05.177Z,13.17
2019-02-27T23:07:33.840Z,14.77
2019-02-27T23:10:01.950Z,16.83
2019-02-27T23:12:30.133Z,16.13
2019-02-27T23:14:58.286Z,16.47
2019-02-27T23:17:26.422Z,14.83
2019-02-27T23:19:54.555Z,14.17
2019-02-27T23:22:22.901Z,16.03
2019-02-27T23:24:51.046Z,16.23
2019-02-27T23:27:19.450Z,16.10
2019-02-27T23:29:47.594Z,13.83
2019-02-27T23:32:15.733Z,15.00
2019-02-27T23:34:43.881Z,13.60
2019-02-27T23:37:12.066Z,15.60
2019-02-27T23:39:42.881Z,12.87
2019-02-27T23:42:10.138Z,12.93
2019-02-27T23:44:39.357Z,14.00
2019-02-27T23:47:07.533Z,14.63
2019-02-27T23:49:39.558Z,16.63
2019-02-27T23:52:05.714Z,15.90
2019-02-27T23:54:35.793Z,14.07
2019-02-27T23:57:03.713Z,17.93
2019-02-27T23:59:32.998Z,15.40
